A7AAX OTHH-OTHH
Flight info
| Callsign | A7AAX |
|---|---|
| Flight time | N/A |
| Altitude | 1500 |
| Route | VFR OTHH/34R |
| Aircraft | SF50/L-V/N |
Departure
| Time | 2026-05-06 18:52 |
|---|---|
| Airport | Hamad International Airport (OTHH) |
Arrival
| Time | N/A |
|---|---|
| Airport | Hamad International Airport (OTHH) |
| Time | Latitude | Longitude | Altitude | Speed | Heading |
|---|---|---|---|---|---|
| 2026-05-06 18:52 | 25.27373 | 51.63580 | 722 ft | 209 kts | 166° |
| 2026-05-06 18:52 | 25.26052 | 51.63931 | 690 ft | 214 kts | 163° |
| 2026-05-06 18:52 | 25.24589 | 51.64430 | 420 ft | 226 kts | 161° |
| 2026-05-06 18:52 | 25.23106 | 51.64858 | 550 ft | 210 kts | 188° |
| 2026-05-06 18:53 | 25.22666 | 51.63932 | 814 ft | 155 kts | 328° |
| 2026-05-06 18:53 | 25.23742 | 51.63497 | 333 ft | 188 kts | 332° |
| 2026-05-06 18:53 | 25.23607 | 51.62625 | 285 ft | 192 kts | 153° |
| 2026-05-06 18:53 | 25.23886 | 51.63157 | 217 ft | 147 kts | 340° |
| 2026-05-06 18:54 | 25.24897 | 51.62754 | 402 ft | 155 kts | 343° |
| 2026-05-06 18:54 | 25.25852 | 51.62409 | 596 ft | 159 kts | 342° |
| 2026-05-06 18:54 | 25.26941 | 51.61969 | 658 ft | 168 kts | 343° |
| 2026-05-06 18:54 | 25.28001 | 51.62205 | 970 ft | 163 kts | 44° |
| 2026-05-06 18:55 | 25.28335 | 51.63425 | 646 ft | 208 kts | 97° |
| 2026-05-06 18:55 | 25.27250 | 51.64095 | 855 ft | 200 kts | 167° |
| 2026-05-06 18:55 | 25.25824 | 51.64352 | 957 ft | 202 kts | 175° |
| 2026-05-06 18:55 | 25.24343 | 51.64428 | 718 ft | 218 kts | 191° |
| 2026-05-06 18:56 | 25.23789 | 51.63562 | 1321 ft | 150 kts | 286° |
| 2026-05-06 18:56 | 25.24814 | 51.62983 | 248 ft | 195 kts | 342° |
| 2026-05-06 18:56 | 25.26094 | 51.62432 | 92 ft | 191 kts | 339° |
| 2026-05-06 18:56 | 25.27235 | 51.61915 | 649 ft | 158 kts | 340° |
| 2026-05-06 18:57 | 25.28272 | 51.61629 | 706 ft | 164 kts | 9° |
| 2026-05-06 18:57 | 25.28329 | 51.62467 | 733 ft | 179 kts | 143° |
| 2026-05-06 18:57 | 25.27158 | 51.63161 | 728 ft | 197 kts | 157° |
| 2026-05-06 18:57 | 25.25823 | 51.63713 | 780 ft | 207 kts | 159° |
| 2026-05-06 18:58 | 25.24377 | 51.64216 | 459 ft | 226 kts | 164° |
| 2026-05-06 18:58 | 25.22859 | 51.64642 | 275 ft | 222 kts | 169° |
| 2026-05-06 18:58 | 25.21556 | 51.64982 | 896 ft | 191 kts | 178° |
| 2026-05-06 18:58 | 25.20605 | 51.64341 | 1017 ft | 164 kts | 256° |
| 2026-05-06 18:59 | 25.20943 | 51.63397 | 831 ft | 149 kts | 346° |
| 2026-05-06 18:59 | 25.21951 | 51.63415 | 755 ft | 152 kts | 3° |
| 2026-05-06 18:59 | 25.22952 | 51.63464 | 639 ft | 157 kts | 359° |
| 2026-05-06 18:59 | 25.23898 | 51.63593 | 285 ft | 136 kts | 348° |
| 2026-05-06 19:00 | 25.24659 | 51.63150 | 173 ft | 148 kts | 332° |
| 2026-05-06 19:00 | 25.25621 | 51.62645 | 41 ft | 155 kts | 339° |
| 2026-05-06 19:00 | 25.26546 | 51.62244 | 388 ft | 134 kts | 340° |